Time;durP1;ratioP1;P1;durP2;ratioP2;P2;SDS_P1;SDS_P2;PMS_P1;PMS_P2;Temp;Humidity;BMP_temperature;BMP_pressure;BME280_temperature;BME280_humidity;BME280_pressure;Samples;Min_cycle;Max_cycle;Signal;HPM_P1;HPM_P2
2023/06/27 00:04:01;;;;;;;1.42;0.90;;;;;;;17.70;42.28;100930.84;20722866;28;20212;-79
2023/06/27 00:14:05;;;;;;;3.83;0.90;;;;;;;17.38;42.74;100929.09;20773939;28;20259;-80
2023/06/27 00:24:09;;;;;;;4.65;1.50;;;;;;;17.44;42.42;100927.66;20787223;28;20223;-80
2023/06/27 00:34:12;;;;;;;4.50;0.93;;;;;;;17.95;41.00;100928.72;20763240;28;20236;-80
2023/06/27 00:44:15;;;;;;;2.63;0.80;;;;;;;17.86;41.58;100931.72;20774705;28;20196;-80
2023/06/27 00:54:18;;;;;;;2.05;0.93;;;;;;;18.13;40.81;100923.53;20783503;28;20263;-80
2023/06/27 01:04:20;;;;;;;1.58;1.30;;;;;;;17.75;40.72;100933.44;20750013;28;20271;-80
2023/06/27 01:14:24;;;;;;;5.05;1.70;;;;;;;17.26;42.07;100926.31;20780210;28;20267;-80
2023/06/27 01:24:26;;;;;;;3.30;1.30;;;;;;;17.29;43.00;100922.72;20783439;28;20246;-81
2023/06/27 01:34:53;;;;;;;3.35;1.20;;;;;;;17.75;41.32;100913.53;20779908;28;20232;-80
2023/06/27 01:44:56;;;;;;;2.83;1.30;;;;;;;17.12;43.26;100909.59;20793925;28;20204;-80
2023/06/27 01:54:59;;;;;;;2.67;1.27;;;;;;;17.03;42.67;100906.88;20758734;28;20244;-79
2023/06/27 02:05:02;;;;;;;4.18;1.30;;;;;;;16.93;43.42;100904.53;20789327;28;20718;-79
2023/06/27 02:15:05;;;;;;;2.90;1.30;;;;;;;17.26;42.99;100893.00;20780251;28;20556;-80
2023/06/27 02:25:08;;;;;;;4.07;1.50;;;;;;;17.45;42.85;100898.00;20815792;28;20589;-80
2023/06/27 02:35:15;;;;;;;2.57;1.07;;;;;;;17.33;44.84;100898.06;20790734;28;20224;-81
2023/06/27 02:45:17;;;;;;;3.08;1.48;;;;;;;16.85;44.63;100896.97;20801045;28;20671;-81
2023/06/27 02:55:20;;;;;;;2.75;1.73;;;;;;;17.19;43.83;100899.25;20825942;28;20558;-80
2023/06/27 03:05:23;;;;;;;2.77;1.67;;;;;;;16.91;44.33;100892.69;20804283;28;20224;-80
2023/06/27 03:15:26;;;;;;;4.80;1.85;;;;;;;16.68;45.03;100905.75;20801030;28;20220;-80
2023/06/27 03:25:30;;;;;;;3.83;1.80;;;;;;;16.99;44.47;100899.44;20822452;28;20489;-81
2023/06/27 03:35:33;;;;;;;10.67;2.23;;;;;;;17.20;43.35;100911.47;20799918;28;20564;-80
2023/06/27 03:45:35;;;;;;;6.57;1.90;;;;;;;16.43;45.46;100910.59;20792653;28;20201;-79
2023/06/27 03:55:40;;;;;;;5.20;1.73;;;;;;;16.85;44.88;100902.66;20795770;28;20290;-80
2023/06/27 04:05:44;;;;;;;5.32;1.80;;;;;;;17.07;44.62;100907.81;20736046;28;20217;-81
2023/06/27 04:15:47;;;;;;;4.80;1.92;;;;;;;17.10;44.54;100900.59;20687095;28;20247;-79
2023/06/27 04:26:15;;;;;;;6.07;1.52;;;;;;;16.90;45.86;100902.41;20727429;28;20197;-79
2023/06/27 04:36:20;;;;;;;6.03;1.70;;;;;;;16.71;46.34;100902.22;20685618;28;20288;-78
2023/06/27 04:46:26;;;;;;;5.00;2.03;;;;;;;16.58;46.52;100894.88;20695689;28;20194;-78
2023/06/27 04:56:29;;;;;;;4.77;1.90;;;;;;;17.03;45.61;100898.34;20679428;28;20287;-78
2023/06/27 05:06:34;;;;;;;4.97;2.10;;;;;;;17.01;46.40;100905.59;20752746;28;20294;-79
2023/06/27 05:16:37;;;;;;;5.03;1.83;;;;;;;17.79;44.72;100914.47;20777905;28;20228;-81
2023/06/27 05:26:39;;;;;;;5.40;2.10;;;;;;;17.73;45.79;100906.53;20790010;28;20262;-82
2023/06/27 05:36:42;;;;;;;7.13;2.08;;;;;;;18.05;45.03;100905.44;20799122;28;20232;-82
2023/06/27 05:46:48;;;;;;;7.45;2.30;;;;;;;18.06;45.64;100911.94;20781948;28;20197;-82
2023/06/27 05:56:51;;;;;;;8.23;3.05;;;;;;;18.71;44.62;100912.38;20779797;28;20274;-82
2023/06/27 06:06:55;;;;;;;7.43;2.78;;;;;;;18.02;46.10;100926.09;20806314;28;20540;-82
2023/06/27 06:16:57;;;;;;;10.10;3.08;;;;;;;18.16;46.18;100926.47;20811244;28;20523;-82
2023/06/27 06:27:00;;;;;;;10.02;3.00;;;;;;;18.54;45.09;100922.97;20816205;28;20205;-82
2023/06/27 06:37:03;;;;;;;8.80;3.28;;;;;;;17.85;47.15;100924.38;20792917;28;20267;-82
2023/06/27 06:47:06;;;;;;;9.45;3.38;;;;;;;18.54;45.82;100914.44;20814402;28;20205;-82
2023/06/27 06:57:10;;;;;;;8.70;3.67;;;;;;;17.59;48.52;100935.41;20763035;28;20572;-82
2023/06/27 07:07:12;;;;;;;8.98;2.83;;;;;;;17.85;48.00;100932.09;20761989;28;20224;-83
2023/06/27 07:17:15;;;;;;;10.52;3.63;;;;;;;18.36;47.37;100935.09;20790525;28;20851;-81
2023/06/27 07:27:17;;;;;;;12.30;3.45;;;;;;;18.76;46.43;100915.78;20807294;28;20259;-82
2023/06/27 07:37:20;;;;;;;10.05;3.10;;;;;;;19.27;44.85;100912.88;20815054;28;20498;-82
2023/06/27 07:47:22;;;;;;;8.32;3.75;;;;;;;19.82;45.35;100905.06;20799880;28;20197;-82
2023/06/27 07:57:25;;;;;;;9.50;3.83;;;;;;;19.41;44.84;100906.69;20809249;28;20637;-82
2023/06/27 08:07:27;;;;;;;11.60;3.80;;;;;;;18.92;46.35;100904.34;20795726;28;20704;-82
2023/06/27 08:17:30;;;;;;;9.93;3.30;;;;;;;19.22;45.29;100904.63;20809150;28;20224;-81
2023/06/27 08:27:33;;;;;;;14.70;4.40;;;;;;;20.34;42.88;100887.28;20808297;28;20256;-82
2023/06/27 08:37:35;;;;;;;12.45;3.40;;;;;;;20.89;40.88;100887.78;20786912;28;20232;-81
2023/06/27 08:47:40;;;;;;;8.57;2.55;;;;;;;21.22;39.99;100870.69;20802481;28;20204;-82
2023/06/27 08:57:43;;;;;;;9.43;2.90;;;;;;;20.62;39.00;100879.19;20782193;28;20220;-81
2023/06/27 09:07:45;;;;;;;9.80;3.20;;;;;;;21.81;37.94;100866.09;20793775;28;20232;-81
2023/06/27 09:17:49;;;;;;;8.15;2.08;;;;;;;21.40;37.04;100865.19;20792635;28;20601;-81
2023/06/27 09:27:51;;;;;;;8.13;2.58;;;;;;;21.49;36.29;100862.84;20798183;28;20219;-82
2023/06/27 09:38:08;;;;;;;7.30;2.45;;;;;;;20.99;37.05;100844.19;20780984;28;20224;-81
2023/06/27 09:48:17;;;;;;;8.40;2.97;;;;;;;21.95;35.01;100859.69;20797949;28;20238;-81
2023/06/27 09:58:29;;;;;;;7.70;2.83;;;;;;;21.31;34.80;100839.69;20797884;28;20224;-80
2023/06/27 10:08:32;;;;;;;8.35;2.58;;;;;;;21.77;34.53;100853.75;20814274;28;20224;-81
2023/06/27 10:18:35;;;;;;;4.07;1.95;;;;;;;21.06;35.08;100859.41;20778272;28;20228;-82
2023/06/27 10:28:37;;;;;;;6.20;2.13;;;;;;;21.41;35.32;100861.94;20800469;28;20200;-81
2023/06/27 10:38:43;;;;;;;8.65;2.20;;;;;;;21.42;34.43;100852.13;20796878;28;20228;-80
2023/06/27 10:48:50;;;;;;;8.35;2.15;;;;;;;22.85;31.97;100837.91;20759492;28;20242;-81
2023/06/27 10:58:58;;;;;;;8.98;1.55;;;;;;;21.85;33.19;100844.03;20818009;28;20274;-81
2023/06/27 11:09:02;;;;;;;5.47;0.98;;;;;;;22.72;30.43;100821.41;20819446;28;20224;-81
2023/06/27 11:19:05;;;;;;;3.90;0.93;;;;;;;21.37;31.83;100826.72;20814852;28;20274;-81
2023/06/27 11:29:07;;;;;;;5.63;1.40;;;;;;;21.86;32.13;100828.47;20845056;28;20663;-81
2023/06/27 11:39:10;;;;;;;4.75;0.90;;;;;;;22.71;29.37;100816.91;20803538;28;20683;-81
2023/06/27 11:49:14;;;;;;;5.93;1.20;;;;;;;23.13;28.51;100801.94;20797435;28;20192;-80
2023/06/27 11:59:29;;;;;;;8.77;1.50;;;;;;;22.33;29.52;100821.13;20817276;28;20301;-80
2023/06/27 12:09:31;;;;;;;4.10;1.30;;;;;;;21.54;32.59;100827.31;20814022;28;20224;-81
2023/06/27 12:19:34;;;;;;;5.75;1.20;;;;;;;21.80;29.85;100815.75;20781996;28;20216;-80
2023/06/27 12:29:36;;;;;;;3.58;1.10;;;;;;;22.51;29.57;100813.47;20778185;28;20196;-80
2023/06/27 12:39:39;;;;;;;5.93;1.20;;;;;;;23.08;29.73;100791.69;20810105;28;20588;-81
2023/06/27 12:49:42;;;;;;;5.72;1.40;;;;;;;21.93;30.85;100802.78;20781392;28;20201;-81
2023/06/27 12:59:44;;;;;;;8.52;1.20;;;;;;;22.47;31.50;100799.09;20814280;28;20188;-80
2023/06/27 13:09:48;;;;;;;7.18;1.55;;;;;;;22.18;31.12;100797.25;20811905;28;20240;-80
2023/06/27 13:19:51;;;;;;;3.35;1.00;;;;;;;21.33;29.59;100800.06;20827838;28;20263;-81
2023/06/27 13:29:53;;;;;;;1.70;0.80;;;;;;;23.23;27.27;100783.97;20777936;28;20196;-81
2023/06/27 13:39:56;;;;;;;4.78;1.20;;;;;;;23.29;29.36;100776.56;20784126;28;20354;-80
2023/06/27 13:49:59;;;;;;;6.55;0.90;;;;;;;22.82;26.92;100758.34;20795355;28;20196;-80
2023/06/27 14:00:01;;;;;;;2.67;0.63;;;;;;;22.64;28.50;100748.81;20796178;28;20663;-79
2023/06/27 14:10:13;;;;;;;2.03;0.60;;;;;;;21.79;28.23;100753.94;20815064;28;20228;-80
2023/06/27 14:20:15;;;;;;;2.53;0.73;;;;;;;22.88;27.86;100732.94;20796494;28;20204;-80
2023/06/27 14:30:21;;;;;;;3.03;0.68;;;;;;;22.35;27.10;100729.75;20790123;28;20355;-80
2023/06/27 14:40:23;;;;;;;3.97;0.50;;;;;;;23.41;25.58;100721.63;20834452;28;20197;-80
2023/06/27 14:50:26;;;;;;;1.27;0.50;;;;;;;24.03;24.40;100709.75;20783016;28;20208;-80
2023/06/27 15:00:30;;;;;;;1.33;0.40;;;;;;;23.11;24.11;100701.06;20808143;28;20196;-83
2023/06/27 15:10:32;;;;;;;1.73;0.40;;;;;;;23.26;23.04;100708.47;20817030;28;20227;-80
2023/06/27 15:20:35;;;;;;;0.50;0.22;;;;;;;23.41;24.13;100695.78;20778238;28;20197;-81
2023/06/27 15:30:38;;;;;;;1.70;1.02;;;;;;;23.61;24.36;100695.44;20768300;28;20216;-69
2023/06/27 15:40:41;;;;;;;4.38;0.40;;;;;;;23.41;25.78;100704.41;20848242;28;20201;-69
2023/06/27 15:50:44;;;;;;;15.27;9.10;;;;;;;23.73;26.90;100695.84;20798131;28;20242;-73
2023/06/27 16:00:46;;;;;;;14.10;9.25;;;;;;;23.18;25.35;100693.28;20783924;28;20219;-73
2023/06/27 16:10:50;;;;;;;1.88;0.35;;;;;;;22.37;25.54;100688.00;20814219;28;20243;-82
2023/06/27 16:20:52;;;;;;;19.42;13.32;;;;;;;22.58;27.33;100697.97;20797003;28;20266;-75
2023/06/27 16:30:55;;;;;;;3.03;0.82;;;;;;;23.00;27.20;100688.72;20807252;28;20477;-81
2023/06/27 16:40:58;;;;;;;4.40;0.45;;;;;;;22.85;27.19;100690.72;20800874;28;20216;-83
2023/06/27 16:51:00;;;;;;;4.35;1.60;;;;;;;22.65;28.47;100684.47;20808345;28;20533;-80
2023/06/27 17:01:03;;;;;;;12.43;8.18;;;;;;;23.13;27.64;100687.09;20812509;28;20625;-84
2023/06/27 17:11:06;;;;;;;4.33;0.87;;;;;;;22.52;27.74;100702.44;20774266;28;20449;-83
2023/06/27 17:21:08;;;;;;;4.68;0.60;;;;;;;21.37;28.54;100712.19;20805070;28;20247;-83
2023/06/27 17:31:11;;;;;;;1.55;0.65;;;;;;;22.21;28.57;100718.22;20796662;28;20297;-81
2023/06/27 17:41:13;;;;;;;4.18;0.90;;;;;;;21.25;30.84;100721.06;20800988;28;20589;-81
2023/06/27 17:51:16;;;;;;;1.75;0.85;;;;;;;22.00;29.32;100713.97;20809055;28;20213;-80
2023/06/27 18:01:19;;;;;;;5.25;1.27;;;;;;;21.47;30.21;100701.22;20774264;28;20228;-80
2023/06/27 18:11:21;;;;;;;4.28;0.75;;;;;;;21.95;30.22;100707.81;20754453;28;20263;-80
2023/06/27 18:21:25;;;;;;;2.63;0.52;;;;;;;20.92;32.03;100730.44;20797830;28;20196;-79
2023/06/27 18:31:28;;;;;;;2.45;0.88;;;;;;;21.32;31.50;100738.28;20788361;28;20220;-79
2023/06/27 18:41:30;;;;;;;6.32;0.95;;;;;;;21.34;31.58;100743.63;20777319;28;20223;-79
2023/06/27 18:51:33;;;;;;;3.15;0.77;;;;;;;20.78;32.39;100740.91;20785311;28;20213;-79
2023/06/27 19:01:36;;;;;;;2.78;1.02;;;;;;;21.35;31.53;100730.97;20749705;28;20254;-79
2023/06/27 19:11:39;;;;;;;3.58;0.73;;;;;;;20.61;32.68;100731.72;20705658;28;20283;-79
2023/06/27 19:21:41;;;;;;;6.28;1.38;;;;;;;21.42;31.92;100740.47;20736088;28;20288;-78
2023/06/27 19:31:44;;;;;;;3.63;0.98;;;;;;;21.27;31.71;100744.41;20699878;28;20217;-80
2023/06/27 19:41:47;;;;;;;3.55;0.85;;;;;;;20.87;33.39;100747.16;20721898;28;20185;-80
2023/06/27 19:51:49;;;;;;;1.83;0.82;;;;;;;21.13;32.94;100741.34;20725449;28;20213;-80
2023/06/27 20:01:52;;;;;;;5.50;1.13;;;;;;;20.89;33.02;100742.69;20711586;28;20221;-80
2023/06/27 20:11:55;;;;;;;3.78;1.95;;;;;;;20.67;33.70;100763.63;20784109;28;20939;-79
2023/06/27 20:21:57;;;;;;;6.00;0.80;;;;;;;20.34;34.33;100761.50;20765453;28;20258;-80
2023/06/27 20:32:00;;;;;;;2.33;0.82;;;;;;;20.28;34.39;100774.47;20746255;28;20283;-80
2023/06/27 20:42:03;;;;;;;4.65;0.95;;;;;;;20.20;34.65;100767.00;20722821;28;20220;-79
2023/06/27 20:52:06;;;;;;;4.53;0.73;;;;;;;20.41;34.29;100775.91;20754730;28;20521;-79
2023/06/27 21:02:12;;;;;;;4.03;0.90;;;;;;;20.22;34.75;100776.03;20753504;28;20216;-79
2023/06/27 21:12:20;;;;;;;3.67;0.73;;;;;;;20.61;35.38;100768.88;20758038;28;20221;-79
2023/06/27 21:22:24;;;;;;;4.50;0.90;;;;;;;20.98;34.77;100773.84;20766253;28;20200;-79
2023/06/27 21:32:27;;;;;;;3.22;1.17;;;;;;;21.01;34.76;100778.81;20806154;28;20246;-79
2023/06/27 21:42:31;;;;;;;5.38;0.60;;;;;;;20.44;36.22;100780.84;20793416;28;20251;-79
2023/06/27 21:52:34;;;;;;;3.08;0.90;;;;;;;20.42;35.90;100783.25;20778007;28;20243;-79
2023/06/27 22:02:37;;;;;;;3.97;0.93;;;;;;;20.02;36.55;100784.69;20811346;28;20626;-79
2023/06/27 22:12:39;;;;;;;5.00;0.90;;;;;;;19.96;36.96;100783.38;20803585;28;20225;-79
2023/06/27 22:22:42;;;;;;;5.72;0.77;;;;;;;20.23;36.34;100783.38;20754191;28;20262;-80
2023/06/27 22:32:45;;;;;;;4.20;0.90;;;;;;;19.79;37.13;100781.00;20777811;28;20275;-79
2023/06/27 22:42:48;;;;;;;2.40;0.60;;;;;;;19.51;38.20;100780.47;20779743;28;20204;-79
2023/06/27 22:52:54;;;;;;;3.72;0.90;;;;;;;19.09;39.55;100775.56;20803023;28;20299;-79
2023/06/27 23:02:57;;;;;;;2.80;0.68;;;;;;;18.98;40.23;100771.66;20791398;28;20224;-79
2023/06/27 23:12:59;;;;;;;2.83;0.90;;;;;;;18.37;41.90;100775.19;20795497;28;20687;-79
2023/06/27 23:23:08;;;;;;;6.72;1.00;;;;;;;18.39;41.94;100783.34;20795330;28;20283;-79
2023/06/27 23:33:11;;;;;;;4.43;0.90;;;;;;;18.95;40.88;100786.69;20812570;28;20649;-79
2023/06/27 23:43:13;;;;;;;3.95;0.77;;;;;;;18.69;41.49;100789.38;20796926;28;20204;-79
2023/06/27 23:53:16;;;;;;;2.63;0.90;;;;;;;18.44;42.17;100783.91;20786631;28;20209;-79
